Terminal Aerodrome Forecast
Issued by NWS Charleston, WV

Current Version | Previous Version | Graphics & Text | Print | Product List | Glossary On
Versions: 1 2 3 4 5 6 7 8 9 10 11 12 13 14 15 16 17 18 19 20 21 22 23 24 25 26
000
FTUS41 KRLX 182300
TAFPKB
TAF
KPKB 182334Z 1900/1924 VRB03KT P6SM BKN070
     FM190400 00000KT 4SM BR SCT001
     FM190700 00000KT 3/4SM BR BKN001
     FM191300 VRB03KT 4SM BR SCT010
     FM191500 22004KT P6SM SCT025
     FM191800 24004KT P6SM BKN035=

USA.gov is the U.S. government's official web portal to all federal, state and local government web resources and services.